createdAt,value
2023-11-09T00:00:31.196Z,8.70
2023-11-09T00:02:58.288Z,8.70
2023-11-09T00:05:25.649Z,8.70
2023-11-09T00:07:55.057Z,8.60
2023-11-09T00:10:22.801Z,8.60
2023-11-09T00:12:52.223Z,8.60
2023-11-09T00:15:26.689Z,8.60
2023-11-09T00:17:54.080Z,8.50
2023-11-09T00:20:21.986Z,8.50
2023-11-09T00:22:49.608Z,8.50
2023-11-09T00:25:18.936Z,8.50
2023-11-09T00:27:48.512Z,8.40
2023-11-09T00:30:17.745Z,8.40
2023-11-09T00:32:44.923Z,8.40
2023-11-09T00:35:13.298Z,8.40
2023-11-09T00:37:40.565Z,8.40
2023-11-09T00:40:12.186Z,8.40
2023-11-09T00:42:40.120Z,8.30
2023-11-09T00:45:07.577Z,8.30
2023-11-09T00:47:34.990Z,8.30
2023-11-09T00:50:04.304Z,8.30
2023-11-09T00:52:31.658Z,8.20
2023-11-09T00:55:01.682Z,8.30
2023-11-09T00:57:33.105Z,8.30
2023-11-09T01:00:00.305Z,8.20
2023-11-09T01:02:27.410Z,8.20
2023-11-09T01:04:54.586Z,8.20
2023-11-09T01:07:24.269Z,8.20
2023-11-09T01:09:51.382Z,8.20
2023-11-09T01:12:19.122Z,8.10
2023-11-09T01:14:46.171Z,8.10
2023-11-09T01:17:13.397Z,8.10
2023-11-09T01:19:40.610Z,8.10
2023-11-09T01:22:07.785Z,8.00
2023-11-09T01:24:37.121Z,8.00
2023-11-09T01:27:07.583Z,8.00
2023-11-09T01:29:34.717Z,8.00
2023-11-09T01:32:02.082Z,7.90
2023-11-09T01:34:32.184Z,7.90
2023-11-09T01:36:59.337Z,7.90
2023-11-09T01:39:26.445Z,7.80
2023-11-09T01:41:53.770Z,7.80
2023-11-09T01:44:21.738Z,7.80
2023-11-09T01:46:54.559Z,7.80
2023-11-09T01:49:22.021Z,7.70
2023-11-09T01:51:50.186Z,7.70
2023-11-09T01:54:20.970Z,7.70
2023-11-09T01:56:48.060Z,7.60
2023-11-09T01:59:16.593Z,7.60
2023-11-09T02:01:45.686Z,7.60
2023-11-09T02:04:15.135Z,7.60
2023-11-09T02:06:46.894Z,7.60
2023-11-09T02:09:14.024Z,7.60
2023-11-09T02:11:41.309Z,7.60
2023-11-09T02:14:08.452Z,7.50
2023-11-09T02:16:37.829Z,7.50
2023-11-09T02:19:05.036Z,7.50
2023-11-09T02:21:32.560Z,7.50
2023-11-09T02:24:04.435Z,7.40
2023-11-09T02:26:34.064Z,7.40
2023-11-09T02:29:01.138Z,7.40
2023-11-09T02:31:28.305Z,7.40
2023-11-09T02:33:55.493Z,7.40
2023-11-09T02:36:23.167Z,7.40
2023-11-09T02:38:52.531Z,7.30
2023-11-09T02:41:21.927Z,7.30
2023-11-09T02:43:49.109Z,7.30
2023-11-09T02:46:16.301Z,7.30
2023-11-09T02:48:43.719Z,7.20
2023-11-09T02:51:11.341Z,7.20
2023-11-09T02:53:40.560Z,7.20
2023-11-09T02:56:07.835Z,7.10
2023-11-09T02:58:35.641Z,7.10
2023-11-09T03:01:05.453Z,7.10
2023-11-09T03:03:34.670Z,7.10
2023-11-09T03:06:04.130Z,7.10
2023-11-09T03:08:33.604Z,7.10
2023-11-09T03:11:02.930Z,7.00
2023-11-09T03:13:32.902Z,7.00
2023-11-09T03:15:59.983Z,7.00
2023-11-09T03:18:27.612Z,7.00
2023-11-09T03:20:55.532Z,7.00
2023-11-09T03:23:24.911Z,6.90
2023-11-09T03:25:52.166Z,6.90
2023-11-09T03:28:19.464Z,6.90
2023-11-09T03:30:46.842Z,6.90
2023-11-09T03:33:16.202Z,6.90
2023-11-09T03:35:43.308Z,6.80
2023-11-09T03:38:10.392Z,6.80
2023-11-09T03:40:37.626Z,6.80
2023-11-09T03:43:04.930Z,6.80
2023-11-09T03:45:34.291Z,6.80
2023-11-09T03:48:01.548Z,6.80
2023-11-09T03:50:28.729Z,6.70
2023-11-09T03:52:58.436Z,6.70
2023-11-09T03:55:25.607Z,6.70
2023-11-09T03:57:52.711Z,6.70
2023-11-09T04:00:20.209Z,6.70
2023-11-09T04:02:47.453Z,6.70
2023-11-09T04:05:14.663Z,6.60
2023-11-09T04:07:44.870Z,6.60
2023-11-09T04:10:13.957Z,6.60
2023-11-09T04:12:46.239Z,6.60
2023-11-09T04:15:13.443Z,6.60
2023-11-09T04:17:40.629Z,6.60
2023-11-09T04:20:10.262Z,6.50
2023-11-09T04:22:37.587Z,6.50
2023-11-09T04:25:07.584Z,6.50
2023-11-09T04:27:35.637Z,6.50
2023-11-09T04:30:06.681Z,6.40
2023-11-09T04:32:33.771Z,6.40
2023-11-09T04:35:00.968Z,6.40
2023-11-09T04:37:28.172Z,6.40
2023-11-09T04:39:59.692Z,6.30
2023-11-09T04:42:30.433Z,6.30
2023-11-09T04:45:01.502Z,6.30
2023-11-09T04:47:30.922Z,6.30
2023-11-09T04:50:03.113Z,6.30
2023-11-09T04:52:35.065Z,6.30
2023-11-09T04:55:11.624Z,6.30
2023-11-09T04:58:01.188Z,6.20
2023-11-09T05:00:51.850Z,6.20
2023-11-09T05:03:38.227Z,6.20
2023-11-09T05:06:24.530Z,6.20
2023-11-09T05:08:51.645Z,6.20
2023-11-09T05:11:21.030Z,6.20
2023-11-09T05:13:48.156Z,6.20
2023-11-09T05:16:17.804Z,6.20
2023-11-09T05:18:48.530Z,6.20
2023-11-09T05:21:15.875Z,6.20
2023-11-09T05:23:42.971Z,6.20
2023-11-09T05:26:10.099Z,6.10
2023-11-09T05:28:39.316Z,6.10
2023-11-09T05:31:07.944Z,6.10
2023-11-09T05:33:35.479Z,6.10
2023-11-09T05:36:08.616Z,6.10
2023-11-09T05:38:36.299Z,6.10
2023-11-09T05:41:06.010Z,6.10
2023-11-09T05:43:33.184Z,6.00
2023-11-09T05:46:02.910Z,6.00
2023-11-09T05:48:30.053Z,6.00
2023-11-09T05:50:59.718Z,6.00
2023-11-09T05:53:29.160Z,6.00
2023-11-09T05:55:56.613Z,6.00
2023-11-09T05:58:23.752Z,6.00
2023-11-09T06:00:50.996Z,6.00
2023-11-09T06:03:18.261Z,5.90
2023-11-09T06:05:46.644Z,5.90
2023-11-09T06:08:13.853Z,5.90
2023-11-09T06:10:43.352Z,5.90
2023-11-09T06:13:10.424Z,5.90
2023-11-09T06:15:39.979Z,5.90
2023-11-09T06:18:07.897Z,5.80
2023-11-09T06:20:35.216Z,5.80
2023-11-09T06:23:03.377Z,5.80
2023-11-09T06:25:30.497Z,5.80
2023-11-09T06:27:57.712Z,5.80
2023-11-09T06:30:28.369Z,5.70
2023-11-09T06:32:55.540Z,5.70
2023-11-09T06:35:22.703Z,5.80
2023-11-09T06:37:51.905Z,5.70
2023-11-09T06:40:19.195Z,5.70
2023-11-09T06:42:48.334Z,5.70
2023-11-09T06:45:15.460Z,5.70
2023-11-09T06:47:43.183Z,5.70
2023-11-09T06:50:20.437Z,5.70
2023-11-09T06:52:48.204Z,5.70
2023-11-09T06:55:16.848Z,5.70
2023-11-09T06:57:47.630Z,5.70
2023-11-09T07:00:14.871Z,5.80
2023-11-09T07:02:42.532Z,5.70
2023-11-09T07:05:09.856Z,5.70
2023-11-09T07:07:39.652Z,5.70
2023-11-09T07:10:08.746Z,5.70
2023-11-09T07:12:36.705Z,5.70
2023-11-09T07:15:06.497Z,5.70
2023-11-09T07:17:34.017Z,5.80
2023-11-09T07:20:01.369Z,5.80
2023-11-09T07:22:29.357Z,5.80
2023-11-09T07:25:10.479Z,5.80
2023-11-09T07:27:40.507Z,5.90
2023-11-09T07:30:08.182Z,5.90
2023-11-09T07:32:36.237Z,5.90
2023-11-09T07:35:03.467Z,6.00
2023-11-09T07:37:32.905Z,6.00
2023-11-09T07:40:00.282Z,6.00
2023-11-09T07:42:28.257Z,6.10
2023-11-09T07:44:55.644Z,6.10
2023-11-09T07:47:22.749Z,6.10
2023-11-09T07:49:51.902Z,6.20
2023-11-09T07:52:21.152Z,6.20
2023-11-09T07:54:49.934Z,6.20
2023-11-09T07:57:17.129Z,6.30
2023-11-09T07:59:46.396Z,6.30
2023-11-09T08:02:16.376Z,6.30
2023-11-09T08:04:43.704Z,6.40
2023-11-09T08:07:10.846Z,6.40
2023-11-09T08:09:38.334Z,6.40
2023-11-09T08:12:06.357Z,6.50
2023-11-09T08:14:33.595Z,6.50
2023-11-09T08:17:03.197Z,6.50
2023-11-09T08:19:30.361Z,6.50
2023-11-09T08:21:57.763Z,6.60
2023-11-09T08:24:27.440Z,6.60
2023-11-09T08:26:54.539Z,6.60
2023-11-09T08:29:21.687Z,6.60
2023-11-09T08:31:48.985Z,6.70
2023-11-09T08:34:17.355Z,6.70
2023-11-09T08:36:49.145Z,6.70
2023-11-09T08:39:20.431Z,6.70
2023-11-09T08:41:48.592Z,6.70
2023-11-09T08:44:22.032Z,6.70
2023-11-09T08:46:49.226Z,6.80
2023-11-09T08:49:16.399Z,6.80
2023-11-09T08:51:44.826Z,6.80
2023-11-09T08:54:11.895Z,6.80
2023-11-09T08:56:39.299Z,6.90
2023-11-09T08:59:09.300Z,6.90
2023-11-09T09:01:36.414Z,7.00
2023-11-09T09:04:04.756Z,7.00
2023-11-09T09:06:35.130Z,7.10
2023-11-09T09:09:02.347Z,7.10
2023-11-09T09:11:31.961Z,7.20
2023-11-09T09:13:59.039Z,7.20
2023-11-09T09:16:29.711Z,7.30
2023-11-09T09:18:57.545Z,7.30
2023-11-09T09:21:26.980Z,7.40
2023-11-09T09:23:57.693Z,7.40
2023-11-09T09:26:24.764Z,7.40
2023-11-09T09:28:52.704Z,7.50
2023-11-09T09:31:20.646Z,7.50
2023-11-09T09:34:10.623Z,7.50
2023-11-09T09:36:38.194Z,7.60
2023-11-09T09:39:05.460Z,7.60
2023-11-09T09:41:38.820Z,7.60
2023-11-09T09:44:07.894Z,7.70
2023-11-09T09:46:36.996Z,7.80
2023-11-09T09:49:05.172Z,7.80
2023-11-09T09:51:35.353Z,7.80
2023-11-09T09:54:03.209Z,7.90
2023-11-09T09:56:30.849Z,7.90
2023-11-09T09:58:57.994Z,8.00
2023-11-09T10:01:26.572Z,8.00
2023-11-09T10:03:54.642Z,8.10
2023-11-09T10:06:22.959Z,8.20
2023-11-09T10:08:52.498Z,8.20
2023-11-09T10:11:19.682Z,8.30
2023-11-09T10:13:49.160Z,8.30
2023-11-09T10:16:16.481Z,8.40
2023-11-09T10:18:43.660Z,8.50
2023-11-09T10:21:13.882Z,8.60
2023-11-09T10:23:41.652Z,8.60
2023-11-09T10:26:12.972Z,8.70
2023-11-09T10:28:40.478Z,8.70
2023-11-09T10:31:09.008Z,8.80
2023-11-09T10:33:37.012Z,8.90
2023-11-09T10:36:07.034Z,8.90
2023-11-09T10:38:37.534Z,9.00
2023-11-09T10:41:16.326Z,9.00
2023-11-09T10:43:54.704Z,9.00
2023-11-09T10:46:22.040Z,9.10
2023-11-09T10:48:51.700Z,9.10
2023-11-09T10:51:21.715Z,9.20
2023-11-09T10:53:49.517Z,9.20
2023-11-09T10:56:17.308Z,9.30
2023-11-09T10:58:46.565Z,9.30
2023-11-09T11:01:18.868Z,9.40
2023-11-09T11:03:52.555Z,9.40
2023-11-09T11:06:24.915Z,9.50
2023-11-09T11:08:57.922Z,9.50
2023-11-09T11:11:29.995Z,9.60
2023-11-09T11:13:59.492Z,9.70
2023-11-09T11:16:37.161Z,9.70
2023-11-09T11:19:07.767Z,9.80
2023-11-09T11:21:46.704Z,9.90
2023-11-09T11:24:28.933Z,9.90
2023-11-09T11:27:18.825Z,10.00
2023-11-09T11:29:51.396Z,10.10
2023-11-09T11:32:34.812Z,10.10
2023-11-09T11:35:04.555Z,10.10
2023-11-09T11:37:33.090Z,10.10
2023-11-09T11:40:11.096Z,10.20
2023-11-09T11:42:41.378Z,10.20
2023-11-09T11:45:08.998Z,10.30
2023-11-09T11:47:36.195Z,10.30
2023-11-09T11:50:09.909Z,10.40
2023-11-09T11:52:37.155Z,10.40
2023-11-09T11:55:05.163Z,10.40
2023-11-09T11:57:54.869Z,10.50
2023-11-09T12:00:37.281Z,10.50
2023-11-09T12:03:05.398Z,10.60
2023-11-09T12:05:32.637Z,10.60
2023-11-09T12:08:02.698Z,10.70
2023-11-09T12:10:30.405Z,10.70
2023-11-09T12:12:59.143Z,10.80
2023-11-09T12:15:31.563Z,10.80
2023-11-09T12:17:58.740Z,10.90
2023-11-09T12:20:26.959Z,11.00
2023-11-09T12:22:56.380Z,11.00
2023-11-09T12:25:27.625Z,11.10
2023-11-09T12:27:57.144Z,11.10
2023-11-09T12:30:24.617Z,11.20
2023-11-09T12:32:54.866Z,11.30
2023-11-09T12:35:22.150Z,11.30
2023-11-09T12:38:00.828Z,11.40
2023-11-09T12:40:30.034Z,11.50
2023-11-09T12:42:59.955Z,11.50
2023-11-09T12:45:27.117Z,11.60
2023-11-09T12:47:56.774Z,11.60
2023-11-09T12:50:25.508Z,11.60
2023-11-09T12:52:55.726Z,11.70
2023-11-09T12:55:24.474Z,11.70
2023-11-09T12:57:51.688Z,11.70
2023-11-09T13:00:24.433Z,11.70
2023-11-09T13:02:58.133Z,11.70
2023-11-09T13:05:33.009Z,11.70
2023-11-09T13:08:08.730Z,11.70
2023-11-09T13:10:39.450Z,11.70
2023-11-09T13:13:22.044Z,11.70
2023-11-09T13:15:51.620Z,11.70
2023-11-09T13:18:28.515Z,11.70
2023-11-09T13:20:56.120Z,11.70
2023-11-09T13:23:40.405Z,11.80
2023-11-09T13:26:09.732Z,11.80
2023-11-09T13:28:36.979Z,11.80
2023-11-09T13:31:14.168Z,11.80
2023-11-09T13:33:46.298Z,11.80
2023-11-09T13:36:17.072Z,11.80
2023-11-09T13:39:12.974Z,11.80
2023-11-09T13:41:43.446Z,11.90
2023-11-09T13:44:12.920Z,11.80
2023-11-09T13:46:42.670Z,11.90
2023-11-09T13:49:20.488Z,11.90
2023-11-09T13:52:11.928Z,11.90
2023-11-09T13:54:55.335Z,11.90
2023-11-09T13:57:25.703Z,12.00
2023-11-09T13:59:57.059Z,12.00
2023-11-09T14:02:28.883Z,12.00
2023-11-09T14:05:08.588Z,12.00
2023-11-09T14:07:43.745Z,12.00
2023-11-09T14:10:22.089Z,12.00
2023-11-09T14:12:53.334Z,12.00
2023-11-09T14:15:25.761Z,12.00
2023-11-09T14:17:57.268Z,12.10
2023-11-09T14:20:42.973Z,12.00
2023-11-09T14:23:10.179Z,12.10
2023-11-09T14:25:39.986Z,12.00
2023-11-09T14:28:07.457Z,12.10
2023-11-09T14:30:34.778Z,12.10
2023-11-09T14:33:05.318Z,12.10
2023-11-09T14:35:34.018Z,12.10
2023-11-09T14:38:08.960Z,12.10
2023-11-09T14:40:44.581Z,12.10
2023-11-09T14:43:14.910Z,12.10
2023-11-09T14:45:43.700Z,12.10
2023-11-09T14:48:14.399Z,12.10
2023-11-09T14:50:42.853Z,12.10
2023-11-09T14:53:10.235Z,12.10
2023-11-09T14:55:38.947Z,12.10
2023-11-09T14:58:15.925Z,12.10
2023-11-09T15:00:46.695Z,12.00
2023-11-09T15:03:20.527Z,12.10
2023-11-09T15:05:54.361Z,12.00
2023-11-09T15:08:27.787Z,12.00
2023-11-09T15:10:58.001Z,12.00
2023-11-09T15:13:29.330Z,12.00
2023-11-09T15:16:03.708Z,12.00
2023-11-09T15:18:35.033Z,12.00
2023-11-09T15:21:03.643Z,12.00
2023-11-09T15:23:33.998Z,11.90
2023-11-09T15:26:01.386Z,11.90
2023-11-09T15:28:31.918Z,11.90
2023-11-09T15:30:59.423Z,11.90
2023-11-09T15:33:26.533Z,11.90
2023-11-09T15:35:55.851Z,11.80
2023-11-09T15:38:25.759Z,11.80
2023-11-09T15:41:17.069Z,11.80
2023-11-09T15:43:42.496Z,11.80
2023-11-09T15:46:13.848Z,11.80
2023-11-09T15:51:35.325Z,11.70
2023-11-09T15:54:02.436Z,11.70
2023-11-09T15:56:30.476Z,11.70
2023-11-09T15:59:00.703Z,11.70
2023-11-09T16:01:28.114Z,11.70
2023-11-09T16:03:58.766Z,11.60
2023-11-09T16:06:26.350Z,11.60
2023-11-09T16:08:53.477Z,11.60
2023-11-09T16:11:21.846Z,11.60
2023-11-09T16:13:51.188Z,11.60
2023-11-09T16:16:20.527Z,11.60
2023-11-09T16:18:48.225Z,11.60
2023-11-09T16:21:15.780Z,11.50
2023-11-09T16:23:43.002Z,11.50
2023-11-09T16:26:10.646Z,11.50
2023-11-09T16:28:45.195Z,11.50
2023-11-09T16:31:13.646Z,11.40
2023-11-09T16:33:41.197Z,11.40
2023-11-09T16:36:08.606Z,11.40
2023-11-09T16:38:35.803Z,11.40
2023-11-09T16:41:03.035Z,11.40
2023-11-09T16:43:32.978Z,11.30
2023-11-09T16:46:00.888Z,11.30
2023-11-09T16:48:29.461Z,11.30
2023-11-09T16:50:57.355Z,11.30
2023-11-09T16:53:24.452Z,11.20
2023-11-09T16:55:53.301Z,11.20
2023-11-09T16:58:20.503Z,11.20
2023-11-09T17:00:49.856Z,11.20
2023-11-09T17:03:17.054Z,11.10
2023-11-09T17:05:46.791Z,11.10
2023-11-09T17:08:13.930Z,11.10
2023-11-09T17:10:43.369Z,11.10
2023-11-09T17:13:11.059Z,11.00
2023-11-09T17:15:38.176Z,11.00
2023-11-09T17:18:08.714Z,11.00
2023-11-09T17:20:37.842Z,10.90
2023-11-09T17:23:09.656Z,11.00
2023-11-09T17:25:36.805Z,10.90
2023-11-09T17:28:06.591Z,10.90
2023-11-09T17:30:37.965Z,10.90
2023-11-09T17:33:07.512Z,10.80
2023-11-09T17:35:37.361Z,10.80
2023-11-09T17:38:04.761Z,10.80
2023-11-09T17:40:32.025Z,10.70
2023-11-09T17:42:59.223Z,10.70
2023-11-09T17:45:26.509Z,10.70
2023-11-09T17:47:54.827Z,10.70
2023-11-09T17:50:22.871Z,10.60
2023-11-09T17:52:53.124Z,10.60
2023-11-09T17:55:21.068Z,10.60
2023-11-09T17:57:48.693Z,10.60
2023-11-09T18:00:17.204Z,10.50
2023-11-09T18:02:46.423Z,10.50
2023-11-09T18:05:14.261Z,10.50
2023-11-09T18:07:41.714Z,10.50
2023-11-09T18:10:09.076Z,10.50
2023-11-09T18:12:37.101Z,10.40
2023-11-09T18:15:06.306Z,10.40
2023-11-09T18:17:35.832Z,10.40
2023-11-09T18:20:13.317Z,10.30
2023-11-09T18:22:42.160Z,10.30
2023-11-09T18:25:12.273Z,10.30
2023-11-09T18:27:40.479Z,10.30
2023-11-09T18:30:23.538Z,10.30
2023-11-09T18:32:50.935Z,10.20
2023-11-09T18:35:19.607Z,10.20
2023-11-09T18:37:56.518Z,10.20
2023-11-09T18:40:28.505Z,10.20
2023-11-09T18:43:00.281Z,10.20
2023-11-09T18:45:27.430Z,10.10
2023-11-09T18:47:55.156Z,10.20
2023-11-09T18:52:55.405Z,10.10
2023-11-09T18:55:23.122Z,10.10
2023-11-09T18:57:50.286Z,10.10
2023-11-09T19:00:17.748Z,10.00
2023-11-09T19:05:28.871Z,10.00
2023-11-09T19:07:56.217Z,10.00
2023-11-09T19:10:23.374Z,10.00
2023-11-09T19:12:52.913Z,10.00
2023-11-09T19:15:24.212Z,9.90
2023-11-09T19:17:53.291Z,9.90
2023-11-09T19:22:26.503Z,9.90
2023-11-09T19:23:09.311Z,9.90
2023-11-09T19:25:38.706Z,9.80
2023-11-09T19:28:10.194Z,9.80
2023-11-09T19:31:13.459Z,9.80
2023-11-09T19:34:06.029Z,9.80
2023-11-09T19:46:16.970Z,9.70
2023-11-09T19:49:04.011Z,9.70
2023-11-09T19:55:29.052Z,9.70
2023-11-09T19:58:25.641Z,9.80
2023-11-09T20:01:15.795Z,9.70
2023-11-09T20:04:30.191Z,9.70
2023-11-09T20:10:35.928Z,9.70
2023-11-09T20:13:25.989Z,9.70
2023-11-09T20:19:07.429Z,9.70
2023-11-09T20:22:10.596Z,9.70
2023-11-09T20:36:51.668Z,9.60
2023-11-09T20:39:36.699Z,9.60
2023-11-09T20:42:22.873Z,9.60
2023-11-09T20:45:00.081Z,9.60
2023-11-09T20:47:52.856Z,9.60
2023-11-09T20:57:22.040Z,9.50
2023-11-09T20:59:51.204Z,9.50
2023-11-09T21:02:20.784Z,9.50
2023-11-09T21:04:50.805Z,9.50
2023-11-09T21:07:20.543Z,9.40
2023-11-09T21:09:47.762Z,9.40
2023-11-09T21:12:19.574Z,9.40
2023-11-09T21:14:49.948Z,9.40
2023-11-09T21:17:17.267Z,9.40
2023-11-09T21:19:44.424Z,9.40
2023-11-09T21:22:14.083Z,9.40
2023-11-09T21:24:43.813Z,9.30
2023-11-09T21:27:13.563Z,9.30
2023-11-09T21:29:41.261Z,9.30
2023-11-09T21:32:11.895Z,9.30
2023-11-09T21:34:41.922Z,9.30
2023-11-09T21:37:09.427Z,9.30
2023-11-09T21:39:39.495Z,9.30
2023-11-09T21:42:12.784Z,9.30
2023-11-09T21:44:41.240Z,9.30
2023-11-09T21:47:13.018Z,9.30
2023-11-09T21:49:41.939Z,9.30
2023-11-09T21:52:09.053Z,9.30
2023-11-09T21:54:36.236Z,9.30
2023-11-09T21:57:03.439Z,9.30
2023-11-09T21:59:32.579Z,9.30
2023-11-09T22:01:59.676Z,9.30
2023-11-09T22:04:26.868Z,9.30
2023-11-09T22:06:54.461Z,9.30
2023-11-09T22:09:23.870Z,9.20
2023-11-09T22:11:51.601Z,9.20
2023-11-09T22:14:20.950Z,9.20
2023-11-09T22:16:48.198Z,9.20
2023-11-09T22:19:15.337Z,9.20
2023-11-09T22:21:42.471Z,9.20
2023-11-09T22:24:11.680Z,9.20
2023-11-09T22:26:40.178Z,9.10
2023-11-09T22:29:07.814Z,9.10
2023-11-09T22:31:39.152Z,9.10
2023-11-09T22:34:11.024Z,9.10
2023-11-09T22:36:38.880Z,9.10
2023-11-09T22:39:07.090Z,9.10
2023-11-09T22:41:34.263Z,9.10
2023-11-09T22:44:03.460Z,9.10
2023-11-09T22:46:30.563Z,9.10
2023-11-09T22:48:57.670Z,9.10
2023-11-09T22:51:24.828Z,9.10
2023-11-09T22:53:51.982Z,9.10
2023-11-09T22:56:19.157Z,9.10
2023-11-09T22:58:48.738Z,9.10
2023-11-09T23:01:24.720Z,9.10
2023-11-09T23:03:54.432Z,9.10
2023-11-09T23:06:25.160Z,9.10
2023-11-09T23:08:52.551Z,9.10
2023-11-09T23:11:22.118Z,9.10
2023-11-09T23:13:49.239Z,9.10
2023-11-09T23:16:17.783Z,9.10
2023-11-09T23:18:44.984Z,9.10
2023-11-09T23:21:12.113Z,9.10
2023-11-09T23:23:39.219Z,9.10
2023-11-09T23:26:06.333Z,9.10
2023-11-09T23:28:33.469Z,9.10
2023-11-09T23:31:00.566Z,9.10
2023-11-09T23:33:27.734Z,9.10
2023-11-09T23:35:54.820Z,9.10
2023-11-09T23:38:24.780Z,9.10
2023-11-09T23:40:52.239Z,9.10
2023-11-09T23:43:19.884Z,9.10
2023-11-09T23:45:47.115Z,9.10
2023-11-09T23:48:14.535Z,9.10
2023-11-09T23:50:41.952Z,9.10
2023-11-09T23:53:09.346Z,9.00
2023-11-09T23:55:36.491Z,9.00
2023-11-09T23:58:05.884Z,9.10
